Time;durP1;ratioP1;P1;durP2;ratioP2;P2;SDS_P1;SDS_P2;PMS_P1;PMS_P2;Temp;Humidity;BMP_temperature;BMP_pressure;BME280_temperature;BME280_humidity;BME280_pressure;Samples;Min_cycle;Max_cycle;Signal;HPM_P1;HPM_P2
2023/09/27 00:00:09;;;;;;;4.03;0.90;;;;;;;18.01;64.03;100582.50;5343918;26;33642;-81
2023/09/27 00:02:39;;;;;;;1.30;1.20;;;;;;;18.09;63.50;100580.22;5345755;26;35801;-81
2023/09/27 00:05:10;;;;;;;0.60;0.45;;;;;;;18.20;62.92;100584.03;5345029;26;33989;-81
2023/09/27 00:07:40;;;;;;;10.40;1.12;;;;;;;18.00;63.63;100580.78;5363783;26;34276;-81
2023/09/27 00:10:09;;;;;;;0.55;0.55;;;;;;;17.90;63.77;100583.19;5363838;26;34787;-81
2023/09/27 00:12:38;;;;;;;2.00;0.90;;;;;;;17.93;63.81;100574.09;5326967;26;32773;-81
2023/09/27 00:15:08;;;;;;;1.37;1.27;;;;;;;17.95;63.62;100577.56;5345021;26;33918;-81
2023/09/27 00:17:36;;;;;;;3.05;1.15;;;;;;;18.08;62.88;100572.28;5345274;26;33673;-81
2023/09/27 00:20:05;;;;;;;0.93;0.73;;;;;;;18.03;63.07;100572.56;5345515;26;33944;-81
2023/09/27 00:22:33;;;;;;;5.15;1.65;;;;;;;17.93;63.03;100574.09;5345055;26;32826;-81
2023/09/27 00:25:01;;;;;;;4.00;0.85;;;;;;;17.93;63.23;100582.13;5345227;26;33524;-81
2023/09/27 00:27:29;;;;;;;0.37;0.37;;;;;;;17.97;62.80;100572.97;5364202;26;32878;-81
2023/09/27 00:29:56;;;;;;;0.98;0.77;;;;;;;17.92;62.98;100578.59;5366117;26;34802;-81
2023/09/27 00:32:24;;;;;;;0.88;0.82;;;;;;;17.92;63.24;100572.37;5346015;26;32757;-80
2023/09/27 00:34:51;;;;;;;2.72;1.75;;;;;;;17.84;62.96;100574.66;5364718;26;33810;-80
2023/09/27 00:37:20;;;;;;;0.70;0.57;;;;;;;17.87;63.19;100574.50;5328151;26;32838;-80
2023/09/27 00:39:48;;;;;;;1.00;1.00;;;;;;;17.99;62.68;100576.37;5364497;26;33970;-80
2023/09/27 00:42:16;;;;;;;2.37;1.05;;;;;;;17.79;63.06;100576.75;5364333;26;34204;-79
2023/09/27 00:44:44;;;;;;;2.35;2.05;;;;;;;17.79;62.95;100571.41;5364336;26;33273;-79
2023/09/27 00:47:12;;;;;;;0.62;0.50;;;;;;;17.64;63.75;100579.37;5345807;26;33949;-79
2023/09/27 00:49:40;;;;;;;1.00;0.90;;;;;;;17.65;63.72;100580.22;5346083;26;33601;-80
2023/09/27 00:52:08;;;;;;;1.27;1.17;;;;;;;17.67;63.54;100579.19;5345769;26;33998;-81
2023/09/27 00:54:36;;;;;;;1.33;1.23;;;;;;;17.63;63.55;100577.66;5364204;26;33721;-81
2023/09/27 00:57:05;;;;;;;0.40;0.40;;;;;;;17.70;63.66;100577.28;5345937;26;34315;-80
2023/09/27 00:59:33;;;;;;;1.42;1.33;;;;;;;17.65;63.83;100570.41;5346443;26;33904;-80
2023/09/27 01:02:01;;;;;;;6.12;2.40;;;;;;;17.64;63.74;100571.38;5345532;26;34134;-81
2023/09/27 01:04:29;;;;;;;1.23;0.93;;;;;;;17.66;63.49;100566.81;5365129;26;33737;-80
2023/09/27 01:06:57;;;;;;;0.65;0.37;;;;;;;17.65;63.29;100578.41;5346068;26;34028;-81
2023/09/27 01:09:25;;;;;;;0.95;0.65;;;;;;;17.64;63.63;100582.06;5345873;26;34419;-80
2023/09/27 01:11:53;;;;;;;0.75;0.75;;;;;;;17.82;62.80;100581.94;5364290;26;34223;-81
2023/09/27 01:14:20;;;;;;;7.47;1.12;;;;;;;17.66;62.56;100579.31;5364747;26;33604;-80
2023/09/27 01:16:48;;;;;;;0.80;0.73;;;;;;;17.70;62.84;100582.63;5345616;26;33739;-80
2023/09/27 01:19:16;;;;;;;1.50;1.40;;;;;;;17.56;63.48;100581.66;5345860;26;33636;-81
2023/09/27 01:21:43;;;;;;;0.30;0.30;;;;;;;17.64;62.82;100583.88;5346166;26;33700;-81
2023/09/27 01:24:11;;;;;;;0.57;0.52;;;;;;;17.54;63.30;100578.22;5345874;26;33644;-81
2023/09/27 01:26:39;;;;;;;2.55;1.23;;;;;;;17.51;63.38;100583.72;5364620;26;33905;-81
2023/09/27 01:29:07;;;;;;;2.00;0.73;;;;;;;17.41;63.82;100580.75;5345369;26;32771;-81
2023/09/27 01:31:36;;;;;;;4.57;1.65;;;;;;;17.51;63.26;100581.06;5327648;26;33452;-80
2023/09/27 01:34:05;;;;;;;0.20;0.20;;;;;;;17.35;63.99;100583.81;5345819;26;33459;-80
2023/09/27 01:36:32;;;;;;;1.48;1.37;;;;;;;17.44;64.03;100581.53;5364339;26;34791;-81
2023/09/27 01:39:02;;;;;;;1.20;1.12;;;;;;;17.49;63.63;100582.13;5345240;26;33828;-81
2023/09/27 01:41:30;;;;;;;2.67;0.93;;;;;;;17.48;63.75;100589.28;5344897;26;33160;-80
2023/09/27 01:43:57;;;;;;;2.62;0.82;;;;;;;17.51;63.66;100582.87;5364639;26;34415;-80
2023/09/27 01:46:26;;;;;;;1.58;1.33;;;;;;;17.49;63.83;100582.13;5345493;26;35268;-81
2023/09/27 01:48:53;;;;;;;1.12;0.93;;;;;;;17.38;63.87;100578.28;5364739;26;34041;-80
2023/09/27 01:51:22;;;;;;;1.87;0.40;;;;;;;17.46;63.51;100580.47;5345899;26;33918;-80
2023/09/27 01:53:51;;;;;;;2.72;1.80;;;;;;;17.37;63.76;100581.03;5346122;26;32597;-80
2023/09/27 01:56:19;;;;;;;1.23;1.02;;;;;;;17.42;63.32;100581.62;5364147;26;33636;-80
2023/09/27 01:58:46;;;;;;;0.30;0.30;;;;;;;17.65;62.22;100574.91;5364409;26;34743;-80
2023/09/27 02:01:14;;;;;;;0.75;0.75;;;;;;;17.48;62.65;100575.06;5345683;26;34056;-80
2023/09/27 02:03:42;;;;;;;1.60;1.35;;;;;;;17.29;63.38;100578.84;5363555;26;34257;-80
2023/09/27 02:06:10;;;;;;;1.90;1.23;;;;;;;17.17;64.01;100586.69;5327255;26;33245;-80
2023/09/27 02:08:38;;;;;;;8.48;1.20;;;;;;;17.07;64.33;100583.69;5345351;26;32940;-81
2023/09/27 02:11:06;;;;;;;0.35;0.35;;;;;;;17.18;64.04;100586.59;5364540;26;33961;-80
2023/09/27 02:13:34;;;;;;;1.10;0.93;;;;;;;17.21;63.80;100590.91;5327798;26;33605;-80
2023/09/27 02:16:02;;;;;;;4.15;1.92;;;;;;;17.13;64.20;100586.84;5345504;26;33865;-81
2023/09/27 02:18:30;;;;;;;1.00;1.00;;;;;;;17.03;64.54;100583.00;5345439;26;34737;-81
2023/09/27 02:20:58;;;;;;;1.17;1.00;;;;;;;17.04;64.50;100592.75;5363671;26;34006;-80
2023/09/27 02:23:27;;;;;;;1.80;0.90;;;;;;;17.12;64.08;100593.16;5345686;26;32778;-80
2023/09/27 02:25:58;;;;;;;1.35;1.17;;;;;;;17.20;63.63;100594.53;5327390;26;33720;-80
2023/09/27 02:28:26;;;;;;;1.83;0.98;;;;;;;17.04;64.13;100592.75;5364513;26;33675;-80
2023/09/27 02:30:54;;;;;;;1.40;0.80;;;;;;;17.02;64.27;100591.12;5364038;26;33174;-80
2023/09/27 02:33:22;;;;;;;2.87;1.58;;;;;;;17.10;64.01;100588.88;5327495;26;32572;-79
2023/09/27 02:35:50;;;;;;;0.55;0.55;;;;;;;17.16;63.59;100591.16;5365527;26;33933;-80
2023/09/27 02:38:17;;;;;;;0.80;0.65;;;;;;;17.27;62.95;100588.72;5345237;26;33551;-80
2023/09/27 02:40:45;;;;;;;0.52;0.20;;;;;;;17.12;63.56;100587.81;5327130;26;33027;-79
2023/09/27 02:43:14;;;;;;;1.25;1.15;;;;;;;17.19;63.22;100592.81;5357716;26;174791;-80
2023/09/27 02:45:42;;;;;;;0.90;0.60;;;;;;;17.23;63.08;100595.19;5364176;26;33898;-80
2023/09/27 02:48:10;;;;;;;1.33;0.77;;;;;;;17.11;63.03;100586.09;5363540;26;33998;-80
2023/09/27 02:50:38;;;;;;;2.30;1.30;;;;;;;17.06;63.47;100585.50;5345447;26;33441;-80
2023/09/27 02:53:05;;;;;;;0.30;0.30;;;;;;;16.94;63.82;100583.53;5364465;26;33710;-80
2023/09/27 02:55:33;;;;;;;0.88;0.82;;;;;;;16.93;63.96;100581.84;5364267;26;33183;-81
2023/09/27 02:58:01;;;;;;;1.50;1.15;;;;;;;16.77;64.63;100587.19;5326851;26;34274;-80
2023/09/27 03:00:28;;;;;;;2.10;1.42;;;;;;;16.87;64.23;100587.53;5345275;26;33592;-81
2023/09/27 03:02:56;;;;;;;3.12;1.10;;;;;;;16.96;63.70;100586.16;5363814;26;33438;-80
2023/09/27 03:05:24;;;;;;;6.57;1.30;;;;;;;17.11;63.19;100591.44;5327567;26;32521;-80
2023/09/27 03:07:52;;;;;;;3.30;1.33;;;;;;;17.02;63.23;100586.63;5346030;26;33371;-80
2023/09/27 03:10:20;;;;;;;1.42;1.37;;;;;;;16.89;64.15;100581.12;5345650;26;33436;-80
2023/09/27 03:12:51;;;;;;;2.78;1.52;;;;;;;16.99;63.43;100596.63;5363816;26;32428;-80
2023/09/27 03:15:19;;;;;;;0.40;0.40;;;;;;;16.81;64.38;100590.56;5346148;26;33945;-81
2023/09/27 03:17:48;;;;;;;0.57;0.57;;;;;;;16.78;64.04;100590.72;5326964;26;32953;-81
2023/09/27 03:20:17;;;;;;;1.00;0.90;;;;;;;16.70;64.59;100593.78;5364055;26;34349;-81
2023/09/27 03:22:46;;;;;;;0.55;0.47;;;;;;;16.68;64.60;100590.34;5364050;26;35219;-81
2023/09/27 03:25:19;;;;;;;1.30;1.20;;;;;;;16.61;64.90;100587.16;5345918;26;32927;-81
2023/09/27 03:27:47;;;;;;;1.27;1.17;;;;;;;16.49;64.95;100587.84;5326939;26;34178;-81
2023/09/27 03:30:16;;;;;;;0.98;0.90;;;;;;;16.77;64.24;100581.00;5363600;26;34058;-80
2023/09/27 03:32:44;;;;;;;1.35;1.25;;;;;;;16.59;64.98;100582.87;5326691;26;32580;-80
2023/09/27 03:35:12;;;;;;;0.20;0.20;;;;;;;16.70;64.38;100582.25;5345845;26;33917;-80
2023/09/27 03:37:40;;;;;;;5.12;2.33;;;;;;;16.79;63.96;100584.44;5345535;26;33448;-80
2023/09/27 03:40:15;;;;;;;1.17;0.52;;;;;;;16.73;63.71;100584.78;5363872;26;34873;-81
2023/09/27 03:42:45;;;;;;;1.48;1.10;;;;;;;16.57;64.50;100590.97;5327868;26;33484;-80
2023/09/27 03:45:16;;;;;;;1.62;1.52;;;;;;;16.60;64.92;100589.91;5376705;26;34720;-81
2023/09/27 03:47:47;;;;;;;0.70;0.70;;;;;;;16.63;64.39;100579.94;5349609;26;33911;-80
2023/09/27 03:50:15;;;;;;;1.50;1.40;;;;;;;16.61;64.81;100584.47;5368549;26;34883;-80
2023/09/27 03:52:43;;;;;;;0.55;0.55;;;;;;;16.65;64.35;100588.69;5367814;26;33254;-80
2023/09/27 03:55:12;;;;;;;0.70;0.70;;;;;;;16.69;64.06;100581.38;5330656;26;33098;-80
2023/09/27 03:57:40;;;;;;;0.50;0.50;;;;;;;16.70;64.27;100587.59;5349146;26;33926;-80
2023/09/27 04:00:14;;;;;;;1.15;1.15;;;;;;;16.61;64.61;100581.81;5330752;26;33497;-80
2023/09/27 04:02:43;;;;;;;0.95;0.95;;;;;;;16.50;64.84;100589.56;5331586;26;33553;-79
2023/09/27 04:05:11;;;;;;;1.30;1.20;;;;;;;16.43;65.23;100582.87;5330835;26;33865;-80
2023/09/27 04:07:39;;;;;;;0.80;0.62;;;;;;;16.32;65.36;100586.09;5349615;26;33705;-80
2023/09/27 04:10:08;;;;;;;2.20;1.65;;;;;;;16.17;65.77;100586.94;5349076;26;33670;-80
2023/09/27 04:12:36;;;;;;;0.28;0.28;;;;;;;16.30;65.57;100587.16;5330102;26;33715;-80
2023/09/27 04:15:08;;;;;;;0.75;0.68;;;;;;;16.36;65.37;100582.31;5349001;26;33974;-80
2023/09/27 04:17:37;;;;;;;0.82;0.73;;;;;;;16.47;65.21;100589.72;5350091;26;33025;-79
2023/09/27 04:20:16;;;;;;;1.10;1.00;;;;;;;16.55;64.87;100583.97;5367555;26;33448;-79
2023/09/27 04:22:47;;;;;;;0.75;0.75;;;;;;;16.63;64.76;100582.59;5350751;26;33350;-80
2023/09/27 04:25:15;;;;;;;0.55;0.52;;;;;;;16.56;65.01;100588.34;5367517;26;34011;-79
2023/09/27 04:27:49;;;;;;;1.20;0.98;;;;;;;16.81;63.83;100582.56;5330691;26;32687;-79
2023/09/27 04:30:19;;;;;;;2.47;0.88;;;;;;;16.54;64.62;100580.44;5350069;26;33873;-80
2023/09/27 04:32:52;;;;;;;1.65;0.73;;;;;;;16.57;64.42;100590.97;5330354;26;32536;-80
2023/09/27 04:35:20;;;;;;;0.52;0.30;;;;;;;16.54;64.36;100598.25;5349833;26;34027;-80
2023/09/27 04:37:49;;;;;;;2.15;1.08;;;;;;;16.47;65.15;100605.72;5329986;26;33000;-80
2023/09/27 04:40:17;;;;;;;1.25;1.15;;;;;;;16.87;63.47;100600.88;5348655;26;33543;-80
2023/09/27 04:42:46;;;;;;;1.90;1.70;;;;;;;17.00;62.70;100599.22;5367782;26;34486;-80
2023/09/27 04:45:14;;;;;;;4.47;1.52;;;;;;;16.63;63.81;100606.59;5330190;26;34147;-81
2023/09/27 04:47:44;;;;;;;0.93;0.93;;;;;;;16.45;64.59;100598.78;5348961;26;32838;-81
2023/09/27 04:50:12;;;;;;;0.88;0.85;;;;;;;16.49;64.90;100598.50;5349318;26;33117;-82
2023/09/27 04:52:41;;;;;;;0.47;0.47;;;;;;;16.43;65.16;100600.66;5367173;26;32890;-81
2023/09/27 04:55:09;;;;;;;3.87;1.10;;;;;;;16.47;64.99;100605.72;5367584;26;33916;-81
2023/09/27 04:57:37;;;;;;;2.10;1.37;;;;;;;16.43;65.13;100603.34;5348469;26;33383;-80
2023/09/27 05:00:11;;;;;;;0.88;0.80;;;;;;;16.68;64.32;100603.69;5366854;26;34207;-80
2023/09/27 05:02:38;;;;;;;0.50;0.50;;;;;;;16.49;64.78;100609.19;5366965;26;33018;-80
2023/09/27 05:05:07;;;;;;;2.78;0.90;;;;;;;16.55;64.84;100603.50;5348331;26;33875;-80
2023/09/27 05:07:35;;;;;;;0.77;0.77;;;;;;;16.58;64.45;100603.34;5348567;26;33860;-80
2023/09/27 05:10:03;;;;;;;2.08;0.70;;;;;;;16.64;64.24;100604.78;5347969;26;33482;-80
2023/09/27 05:12:31;;;;;;;0.80;0.80;;;;;;;16.52;65.16;100608.12;5366759;26;33215;-81
2023/09/27 05:14:58;;;;;;;2.20;0.50;;;;;;;16.51;65.45;100606.41;5367662;26;33556;-80
2023/09/27 05:17:26;;;;;;;2.75;1.65;;;;;;;16.59;65.48;100614.84;5349601;26;33940;-80
2023/09/27 05:19:54;;;;;;;0.60;0.55;;;;;;;16.76;64.99;100619.25;5367977;26;34043;-80
2023/09/27 05:22:21;;;;;;;4.65;1.80;;;;;;;16.72;64.99;100607.94;5348977;26;33070;-80
2023/09/27 05:24:49;;;;;;;1.50;1.20;;;;;;;16.82;64.63;100608.28;5367818;26;34245;-80
2023/09/27 05:27:17;;;;;;;0.45;0.45;;;;;;;16.75;65.28;100609.53;5367221;26;33565;-81
2023/09/27 05:29:45;;;;;;;1.48;1.37;;;;;;;16.84;65.17;100614.38;5348600;26;32799;-80
2023/09/27 05:32:13;;;;;;;2.65;1.12;;;;;;;17.02;64.92;100617.78;5367803;26;32939;-81
2023/09/27 05:34:40;;;;;;;1.15;0.98;;;;;;;17.06;64.94;100614.88;5367891;26;32885;-81
2023/09/27 05:37:08;;;;;;;3.53;1.65;;;;;;;17.09;65.24;100614.69;5330752;26;33123;-81
2023/09/27 05:39:35;;;;;;;1.33;1.23;;;;;;;17.21;65.46;100622.94;5330585;26;33539;-81
2023/09/27 05:42:03;;;;;;;2.25;1.02;;;;;;;17.32;65.04;100628.50;5368518;26;33636;-82
2023/09/27 05:44:31;;;;;;;0.60;0.60;;;;;;;17.49;64.65;100623.03;5326072;26;34520;-81
2023/09/27 05:46:58;;;;;;;1.17;0.70;;;;;;;17.45;65.24;100625.97;5365978;26;33821;-81
2023/09/27 05:49:26;;;;;;;1.90;1.80;;;;;;;17.45;65.57;100628.62;5345612;26;34922;-81
2023/09/27 05:51:55;;;;;;;1.87;1.75;;;;;;;17.66;64.99;100628.25;5327710;26;33664;-81
2023/09/27 05:54:23;;;;;;;2.65;2.30;;;;;;;17.49;66.16;100628.38;5309112;26;34077;-81
2023/09/27 05:56:54;;;;;;;1.27;1.08;;;;;;;17.66;66.05;100628.25;5327785;26;32835;-81
2023/09/27 05:59:24;;;;;;;2.22;1.42;;;;;;;17.69;66.03;100623.66;5328561;26;34538;-81
2023/09/27 06:01:52;;;;;;;1.45;1.35;;;;;;;17.83;65.96;100635.25;5345728;26;33975;-81
2023/09/27 06:04:22;;;;;;;1.05;0.95;;;;;;;17.93;66.02;100632.88;5328365;26;34394;-81
2023/09/27 06:06:50;;;;;;;0.70;0.70;;;;;;;18.07;65.79;100635.56;5309031;26;32870;-81
2023/09/27 06:09:18;;;;;;;1.02;0.98;;;;;;;18.13;66.03;100643.19;5327474;26;32825;-81
2023/09/27 06:11:46;;;;;;;0.65;0.65;;;;;;;18.11;66.30;100642.44;5327590;26;33569;-81
2023/09/27 06:14:14;;;;;;;8.05;1.62;;;;;;;18.39;65.62;100636.25;5345998;26;34952;-81
2023/09/27 06:16:44;;;;;;;1.73;1.23;;;;;;;18.34;66.92;100640.16;5326633;26;33214;-82
2023/09/27 06:19:19;;;;;;;1.13;1.07;;;;;;;18.62;66.36;100637.47;5328057;26;34236;-81
2023/09/27 06:21:46;;;;;;;3.00;2.75;;;;;;;18.79;65.81;100649.78;5327811;26;32469;-81
2023/09/27 06:24:14;;;;;;;2.60;1.83;;;;;;;19.01;65.42;100643.91;5345614;26;34645;-81
2023/09/27 06:26:42;;;;;;;5.07;1.85;;;;;;;19.02;65.86;100650.97;5308930;26;34382;-81
2023/09/27 06:29:09;;;;;;;1.33;1.25;;;;;;;19.37;65.14;100661.16;5345712;26;33349;-82
2023/09/27 06:31:38;;;;;;;0.90;0.90;;;;;;;19.54;64.83;100658.22;5345031;26;32763;-82
2023/09/27 06:34:06;;;;;;;5.22;1.12;;;;;;;19.77;65.28;100662.06;5326951;26;34044;-82
2023/09/27 06:36:34;;;;;;;4.15;1.35;;;;;;;19.76;65.85;100667.53;5345734;26;33742;-82
2023/09/27 06:39:06;;;;;;;3.15;1.58;;;;;;;19.93;65.03;100664.53;5345910;26;34264;-82
2023/09/27 06:41:34;;;;;;;0.60;0.60;;;;;;;19.83;64.56;100671.50;5345982;26;32792;-82
2023/09/27 06:44:02;;;;;;;4.12;2.37;;;;;;;20.22;60.08;100665.19;5345479;26;34063;-82
2023/09/27 06:46:29;;;;;;;1.60;1.27;;;;;;;20.41;59.91;100675.47;5349780;26;35378;-82
2023/09/27 06:49:14;;;;;;;0.95;0.82;;;;;;;20.62;58.03;100670.44;5352294;26;34507;-82
2023/09/27 06:51:43;;;;;;;0.62;0.55;;;;;;;20.91;57.42;100684.44;5349554;26;32263;-82
2023/09/27 06:54:10;;;;;;;0.93;0.93;;;;;;;20.93;56.26;100675.28;5368694;26;33682;-82
2023/09/27 06:56:39;;;;;;;1.15;1.05;;;;;;;21.13;56.42;100681.06;5349424;26;33897;-83
2023/09/27 06:59:07;;;;;;;1.65;1.17;;;;;;;21.35;56.19;100678.50;5331268;26;34445;-82
2023/09/27 07:01:35;;;;;;;3.45;1.27;;;;;;;21.50;54.95;100672.94;5330931;26;32643;-82
2023/09/27 07:04:03;;;;;;;8.68;2.53;;;;;;;22.06;52.28;100673.12;5368297;26;33605;-83
2023/09/27 07:06:31;;;;;;;0.73;0.73;;;;;;;22.13;53.05;100669.88;5331091;26;34034;-82
2023/09/27 07:09:03;;;;;;;1.52;1.10;;;;;;;22.37;51.40;100671.63;5367992;26;34306;-83
2023/09/27 07:11:34;;;;;;;1.87;1.12;;;;;;;22.43;51.16;100676.50;5368719;26;34247;-82
2023/09/27 07:14:02;;;;;;;1.37;0.70;;;;;;;22.68;50.09;100673.56;5368218;26;34306;-82
2023/09/27 07:16:29;;;;;;;0.93;0.90;;;;;;;22.96;49.56;100669.53;5349066;26;33164;-82
2023/09/27 07:18:59;;;;;;;2.20;1.50;;;;;;;22.79;49.57;100677.22;5367132;26;33922;-82
2023/09/27 07:21:27;;;;;;;2.25;1.37;;;;;;;22.92;48.52;100673.44;5367389;26;34385;-83
2023/09/27 07:23:55;;;;;;;0.80;0.62;;;;;;;22.74;50.09;100674.91;5349019;26;33031;-82
2023/09/27 07:26:23;;;;;;;1.17;1.10;;;;;;;22.86;49.59;100683.84;5367996;26;33655;-82
2023/09/27 07:28:51;;;;;;;3.10;1.58;;;;;;;23.05;49.48;100677.84;5367733;26;33878;-82
2023/09/27 07:31:19;;;;;;;2.65;1.37;;;;;;;23.32;47.58;100677.41;5330955;26;33409;-82
2023/09/27 07:33:52;;;;;;;0.50;0.50;;;;;;;23.49;47.04;100693.00;5367198;26;33898;-82
2023/09/27 07:36:24;;;;;;;;;;;;;;;23.04;47.61;100681.53;5350606;26;33603;-82
2023/09/27 07:38:52;;;;;;;1.48;1.25;;;;;;;23.60;47.87;100690.28;5349758;26;34444;-82
2023/09/27 07:41:20;;;;;;;1.90;1.65;;;;;;;23.40;47.04;100685.69;5367717;26;33232;-82
2023/09/27 07:43:50;;;;;;;1.15;1.02;;;;;;;23.26;46.82;100681.44;5368551;26;33703;-82
2023/09/27 07:46:19;;;;;;;1.33;1.12;;;;;;;23.51;47.22;100685.66;5345293;26;34712;-82
2023/09/27 07:48:47;;;;;;;0.50;0.40;;;;;;;24.03;44.88;100692.06;5327819;26;33892;-82
2023/09/27 07:51:18;;;;;;;1.62;1.23;;;;;;;23.82;45.29;100683.09;5327062;26;32352;-82
2023/09/27 07:53:46;;;;;;;;;;;;;;;24.04;45.17;100699.16;5328072;26;32713;-82
2023/09/27 07:56:22;;;;;;;0.57;0.57;;;;;;;24.23;44.48;100699.28;5309007;26;33147;-82
2023/09/27 07:58:51;;;;;;;1.85;1.02;;;;;;;23.68;46.49;100698.59;5345575;26;33411;-82
2023/09/27 08:01:21;;;;;;;1.83;0.90;;;;;;;23.97;45.17;100687.16;5327156;26;32655;-82
2023/09/27 08:03:52;;;;;;;2.33;1.40;;;;;;;24.37;44.00;100695.41;5345934;26;34033;-82
2023/09/27 08:06:20;;;;;;;1.05;0.98;;;;;;;24.45;44.00;100692.03;5326941;26;33382;-82
2023/09/27 08:08:51;;;;;;;1.85;0.90;;;;;;;24.37;44.07;100689.16;5327777;26;34679;-82
2023/09/27 08:11:19;;;;;;;8.00;2.12;;;;;;;24.69;44.22;100697.13;5346559;26;34315;-82
2023/09/27 08:13:47;;;;;;;1.30;0.98;;;;;;;24.38;44.67;100701.66;5308643;26;33225;-82
2023/09/27 08:16:15;;;;;;;1.62;1.12;;;;;;;24.68;43.79;100698.09;5327250;26;33942;-82
2023/09/27 08:18:42;;;;;;;17.17;1.42;;;;;;;24.86;43.64;100698.31;5345508;26;33924;-82
2023/09/27 08:21:10;;;;;;;0.65;0.65;;;;;;;24.80;43.06;100696.16;5326699;26;34086;-82
2023/09/27 08:23:40;;;;;;;8.10;1.60;;;;;;;24.77;44.50;100698.13;5365192;26;34727;-82
2023/09/27 08:26:12;;;;;;;9.32;1.42;;;;;;;24.95;43.94;100694.78;5326840;26;33255;-82
2023/09/27 08:28:40;;;;;;;1.17;0.93;;;;;;;25.06;44.28;100699.22;5327259;26;35350;-83
2023/09/27 08:31:09;;;;;;;1.20;1.10;;;;;;;25.18;42.95;100690.91;5365282;26;34606;-82
2023/09/27 08:33:37;;;;;;;4.53;1.15;;;;;;;24.81;44.18;100695.16;5345425;26;33661;-83
2023/09/27 08:36:05;;;;;;;7.30;1.83;;;;;;;25.20;43.86;100688.03;5327242;26;34606;-82
2023/09/27 08:38:33;;;;;;;4.70;1.75;;;;;;;25.25;43.03;100686.62;5308583;26;33566;-82
2023/09/27 08:41:03;;;;;;;4.90;1.80;;;;;;;25.17;44.04;100691.91;5345004;26;33882;-82
2023/09/27 08:43:32;;;;;;;0.55;0.55;;;;;;;25.23;43.09;100694.03;5308609;26;33023;-84
2023/09/27 08:46:01;;;;;;;0.65;0.62;;;;;;;24.95;43.79;100694.78;5341165;26;32845;-82
2023/09/27 08:48:29;;;;;;;8.43;2.03;;;;;;;25.41;43.47;100693.34;5345754;26;34565;-82
2023/09/27 08:51:04;;;;;;;2.45;1.52;;;;;;;25.39;43.25;100692.62;5366001;26;33849;-82
2023/09/27 08:53:34;;;;;;;1.17;1.10;;;;;;;25.55;43.07;100698.34;5329139;26;34083;-82
2023/09/27 08:56:04;;;;;;;3.85;2.60;;;;;;;25.48;43.25;100691.78;5364735;26;35458;-83
2023/09/27 08:58:34;;;;;;;1.17;1.02;;;;;;;25.36;42.94;100692.94;5327549;26;34394;-83
2023/09/27 09:01:03;;;;;;;1.65;1.55;;;;;;;25.79;42.03;100692.53;5345805;26;32642;-82
2023/09/27 09:03:31;;;;;;;2.20;1.48;;;;;;;25.74;42.58;100692.94;5327660;26;33038;-82
2023/09/27 09:05:59;;;;;;;2.60;1.40;;;;;;;25.72;43.40;100688.66;5327492;26;34093;-82
2023/09/27 09:08:27;;;;;;;1.95;1.30;;;;;;;25.90;43.39;100688.81;5327909;26;33069;-82
2023/09/27 09:11:11;;;;;;;1.02;0.73;;;;;;;25.91;42.79;100685.97;5348973;26;34132;-82
2023/09/27 09:14:05;;;;;;;3.22;1.85;;;;;;;26.45;40.78;100681.75;5346433;26;34134;-82
2023/09/27 09:16:44;;;;;;;4.45;1.55;;;;;;;26.38;41.35;100679.72;5346896;26;34620;-82
2023/09/27 09:19:23;;;;;;;1.40;0.98;;;;;;;26.96;40.47;100677.63;5347537;26;34263;-82
2023/09/27 09:22:12;;;;;;;1.75;1.25;;;;;;;26.81;40.81;100671.88;5349102;26;32552;-82
2023/09/27 09:24:43;;;;;;;3.30;1.10;;;;;;;26.97;40.50;100673.09;5327171;26;32787;-83
2023/09/27 09:27:13;;;;;;;3.17;1.75;;;;;;;26.72;40.80;100672.78;5346231;26;32970;-83
2023/09/27 09:29:47;;;;;;;1.00;0.82;;;;;;;26.72;41.04;100670.06;5364954;26;33474;-82
2023/09/27 09:32:33;;;;;;;1.20;1.17;;;;;;;26.80;40.99;100672.88;5366135;26;34102;-82
2023/09/27 09:35:02;;;;;;;0.98;0.88;;;;;;;27.02;41.15;100674.34;5364428;26;33842;-82
2023/09/27 09:37:30;;;;;;;1.70;1.58;;;;;;;26.99;40.82;100671.06;5364438;26;34820;-83
2023/09/27 09:40:14;;;;;;;1.30;1.15;;;;;;;27.05;40.26;100675.88;5346134;26;34520;-82
2023/09/27 09:42:43;;;;;;;3.28;1.80;;;;;;;27.11;39.43;100678.03;5347142;26;33572;-82
2023/09/27 09:45:12;;;;;;;1.77;1.65;;;;;;;26.80;39.31;100663.91;5326729;26;32913;-82
2023/09/27 09:47:43;;;;;;;1.08;1.00;;;;;;;27.33;38.62;100659.59;5364314;26;32978;-83
2023/09/27 09:50:21;;;;;;;2.85;2.00;;;;;;;26.77;39.48;100661.47;5328247;26;33076;-82
2023/09/27 09:52:54;;;;;;;2.60;2.03;;;;;;;26.88;39.94;100655.03;5345911;26;32761;-82
2023/09/27 09:55:23;;;;;;;0.50;0.50;;;;;;;27.09;39.99;100655.62;5327759;26;33384;-82
2023/09/27 09:58:44;;;;;;;1.00;1.00;;;;;;;27.13;41.28;100657.03;5348745;26;33389;-82
2023/09/27 10:01:18;;;;;;;7.35;1.85;;;;;;;27.77;39.02;100661.41;5327884;26;33379;-82
2023/09/27 10:03:51;;;;;;;6.35;2.65;;;;;;;27.91;38.06;100653.69;5347006;26;33575;-83
2023/09/27 10:06:19;;;;;;;20.20;2.12;;;;;;;28.18;37.89;100649.97;5364177;26;33946;-83
2023/09/27 10:09:13;;;;;;;8.27;2.20;;;;;;;27.75;37.36;100659.84;5349018;26;32865;-82
2023/09/27 10:11:44;;;;;;;3.05;1.85;;;;;;;27.67;38.50;100660.59;5328865;26;33193;-82
2023/09/27 10:14:32;;;;;;;4.53;1.42;;;;;;;28.32;36.58;100643.94;5349802;26;33888;-84
2023/09/27 10:17:00;;;;;;;1.92;1.48;;;;;;;28.24;35.68;100650.16;5346284;26;33711;-82
2023/09/27 10:19:28;;;;;;;1.12;1.02;;;;;;;28.13;35.17;100647.72;5364768;26;34883;-82
2023/09/27 10:22:04;;;;;;;1.17;1.10;;;;;;;28.16;36.14;100636.56;5364875;26;33900;-81
2023/09/27 10:24:34;;;;;;;0.60;0.60;;;;;;;28.07;37.83;100645.66;5328324;26;32850;-82
2023/09/27 10:27:02;;;;;;;0.60;0.57;;;;;;;28.39;36.63;100638.72;5327674;26;32973;-81
2023/09/27 10:29:30;;;;;;;2.33;1.73;;;;;;;28.15;36.81;100642.97;5364821;26;33953;-81
2023/09/27 10:31:57;;;;;;;2.15;0.98;;;;;;;28.66;34.79;100627.66;5327603;26;33792;-81
2023/09/27 10:34:26;;;;;;;6.12;1.85;;;;;;;28.91;35.30;100630.44;5364410;26;33220;-80
2023/09/27 10:37:00;;;;;;;1.83;1.73;;;;;;;28.89;34.92;100629.78;5364585;26;34791;-80
2023/09/27 10:40:20;;;;;;;2.22;1.85;;;;;;;29.30;33.89;100634.31;5348526;26;33110;-80
2023/09/27 10:42:48;;;;;;;1.37;0.65;;;;;;;28.93;34.15;100625.72;5310888;26;34063;-81
2023/09/27 10:45:19;;;;;;;2.58;1.33;;;;;;;29.25;33.70;100625.81;5353758;26;32195;-83
2023/09/27 10:47:49;;;;;;;4.12;2.03;;;;;;;29.13;34.34;100619.00;5327817;26;33529;-81
2023/09/27 10:50:28;;;;;;;2.30;1.17;;;;;;;29.48;35.03;100627.84;5309884;26;33248;-81
2023/09/27 10:52:57;;;;;;;2.03;1.65;;;;;;;29.51;33.08;100616.63;5327408;26;33229;-81
2023/09/27 10:55:25;;;;;;;2.55;1.95;;;;;;;29.50;32.85;100609.50;5327634;26;33523;-81
2023/09/27 10:57:53;;;;;;;1.73;1.60;;;;;;;29.43;33.58;100609.31;5327333;26;33819;-81
2023/09/27 11:00:21;;;;;;;3.08;1.55;;;;;;;28.97;33.29;100608.94;5327605;26;34722;-81
2023/09/27 11:02:50;;;;;;;1.48;1.37;;;;;;;29.15;34.73;100600.66;5346270;26;33690;-81
2023/09/27 11:05:24;;;;;;;6.32;1.75;;;;;;;29.59;33.16;100598.47;5346119;26;33983;-81
2023/09/27 11:07:52;;;;;;;5.00;2.03;;;;;;;29.82;34.26;100582.28;5307968;26;32893;-81
2023/09/27 11:10:30;;;;;;;1.90;1.75;;;;;;;30.46;32.28;100576.00;5345440;26;34803;-81
2023/09/27 11:13:12;;;;;;;5.20;1.33;;;;;;;30.42;31.30;100571.91;5327291;26;32971;-81
2023/09/27 11:15:41;;;;;;;1.80;1.12;;;;;;;30.19;31.81;100571.81;5327470;26;33619;-81
2023/09/27 11:18:10;;;;;;;2.22;1.40;;;;;;;30.08;32.27;100575.75;5346251;26;33909;-81
2023/09/27 11:20:40;;;;;;;0.85;0.68;;;;;;;30.00;32.17;100567.59;5327581;26;33048;-81
2023/09/27 11:23:08;;;;;;;1.15;0.93;;;;;;;30.05;31.82;100576.09;5345665;26;33530;-81
2023/09/27 11:25:37;;;;;;;2.30;0.80;;;;;;;30.01;32.13;100577.50;5309149;26;32552;-81
2023/09/27 11:28:06;;;;;;;0.25;0.25;;;;;;;30.23;31.29;100565.84;5327559;26;32717;-81
2023/09/27 11:30:34;;;;;;;4.05;1.80;;;;;;;30.01;33.41;100563.88;5308386;26;32939;-81
2023/09/27 11:33:05;;;;;;;1.55;1.10;;;;;;;30.77;30.12;100555.06;5346231;26;33834;-81
2023/09/27 11:35:34;;;;;;;0.73;0.73;;;;;;;30.37;31.57;100552.53;5327762;26;33300;-81
2023/09/27 11:38:12;;;;;;;1.92;1.23;;;;;;;30.75;30.61;100551.66;5308503;26;32828;-81